Le Claire, Iowa
Current Conditions -  °F | °C
As of 7:52 PM on Monday 22 Dec 2014 (Local Time) from KDVN Reporting Station
Light Rain Light Rain  
Wind Chill: 32°   Ceiling: 200
Heat Index: 39°   Visibility: 1.7mi
Dew Point: 38°   Wind: 10mph
Humidity: 96%   Direction: 100°E
Pressure: 29.54"   Gusts: NA
Location:  41.6°N, 90.35°W
Report Text: KDVN 230152Z AUTO 10009KT 1 3/4SM -RA BR OVC002 04/03 A2954 RMK AO2 RAB34 SLP009 P0001 T00390033
Loading
Personal Weather Stations






























Interactive Weather Map New forecast layout! Learn more

10-Day Weather Forecast

Advertisements
Track Severe Weather on mobile